createdAt,value
2022-08-02T00:02:20.861Z,2.72
2022-08-02T00:04:47.737Z,3.22
2022-08-02T00:07:15.013Z,3.10
2022-08-02T00:09:42.328Z,2.95
2022-08-02T00:12:09.671Z,2.90
2022-08-02T00:14:36.984Z,3.47
2022-08-02T00:17:04.683Z,3.20
2022-08-02T00:19:31.206Z,2.88
2022-08-02T00:21:57.672Z,2.83
2022-08-02T00:24:30.955Z,3.20
2022-08-02T00:26:57.955Z,3.17
2022-08-02T00:29:24.990Z,3.20
2022-08-02T00:31:51.605Z,3.00
2022-08-02T00:34:29.223Z,2.90
2022-08-02T00:36:58.783Z,2.97
2022-08-02T00:39:34.177Z,3.00
2022-08-02T00:42:02.775Z,3.28
2022-08-02T00:44:29.246Z,3.00
2022-08-02T00:46:55.742Z,2.70
2022-08-02T00:49:22.339Z,3.15
2022-08-02T00:51:48.848Z,3.22
2022-08-02T00:54:15.427Z,2.80
2022-08-02T00:56:49.606Z,3.05
2022-08-02T00:59:17.526Z,3.28
2022-08-02T01:01:56.541Z,2.97
2022-08-02T01:04:31.565Z,2.88
2022-08-02T01:07:00.476Z,3.15
2022-08-02T01:09:27.319Z,3.40
2022-08-02T01:11:54.100Z,3.30
2022-08-02T01:14:22.961Z,3.10
2022-08-02T01:17:16.341Z,2.97
2022-08-02T01:20:05.704Z,3.10
2022-08-02T01:23:06.335Z,3.22
2022-08-02T01:25:44.973Z,3.10
2022-08-02T01:28:20.538Z,3.00
2022-08-02T01:30:52.200Z,3.10
2022-08-02T01:33:20.944Z,3.08
2022-08-02T01:35:54.084Z,3.35
2022-08-02T01:38:35.457Z,3.08
2022-08-02T01:41:03.893Z,2.80
2022-08-02T01:43:33.859Z,2.80
2022-08-02T01:46:01.385Z,2.85
2022-08-02T01:48:31.740Z,2.85
2022-08-02T01:51:00.513Z,3.10
2022-08-02T01:53:30.547Z,2.80
2022-08-02T01:55:59.493Z,2.60
2022-08-02T01:58:34.774Z,3.08
2022-08-02T02:01:02.118Z,2.60
2022-08-02T02:03:31.272Z,2.60
2022-08-02T02:06:03.311Z,2.63
2022-08-02T02:08:35.140Z,2.60
2022-08-02T02:12:05.155Z,2.80
2022-08-02T02:13:50.472Z,2.70
2022-08-02T02:16:19.210Z,2.38
2022-08-02T02:18:48.796Z,2.70
2022-08-02T02:21:15.669Z,2.40
2022-08-02T02:23:43.645Z,2.60
2022-08-02T02:26:11.983Z,2.58
2022-08-02T02:28:41.066Z,2.50
2022-08-02T02:31:12.213Z,2.70
2022-08-02T02:33:52.848Z,2.50
2022-08-02T02:36:21.663Z,2.45
2022-08-02T02:38:50.594Z,2.50
2022-08-02T02:41:18.973Z,2.72
2022-08-02T02:43:46.757Z,2.78
2022-08-02T02:46:13.745Z,2.47
2022-08-02T02:48:41.489Z,2.47
2022-08-02T02:51:13.931Z,2.80
2022-08-02T02:54:33.516Z,2.58
2022-08-02T02:56:28.672Z,2.58
2022-08-02T02:58:55.367Z,2.65
2022-08-02T03:01:55.353Z,2.70
2022-08-02T03:04:15.787Z,2.65
2022-08-02T03:06:42.388Z,2.72
2022-08-02T03:09:10.345Z,2.30
2022-08-02T03:11:38.779Z,2.55
2022-08-02T03:14:09.122Z,2.58
2022-08-02T03:16:42.247Z,2.85
2022-08-02T03:19:08.662Z,2.80
2022-08-02T03:21:35.138Z,2.70
2022-08-02T03:24:01.608Z,2.65
2022-08-02T03:26:28.102Z,2.65
2022-08-02T03:28:54.555Z,2.80
2022-08-02T03:31:21.001Z,2.70
2022-08-02T03:33:47.856Z,3.22
2022-08-02T03:36:16.552Z,2.88
2022-08-02T03:38:45.007Z,3.00
2022-08-02T03:41:13.683Z,2.60
2022-08-02T03:43:41.121Z,3.03
2022-08-02T03:46:09.657Z,2.70
2022-08-02T03:48:38.308Z,2.67
2022-08-02T03:51:06.887Z,2.97
2022-08-02T03:53:33.972Z,2.90
2022-08-02T03:56:00.997Z,2.83
2022-08-02T03:58:27.660Z,3.10
2022-08-02T04:00:56.335Z,3.10
2022-08-02T04:03:22.937Z,2.90
2022-08-02T04:06:03.467Z,2.80
2022-08-02T04:08:37.603Z,2.90
2022-08-02T04:11:23.297Z,2.88
2022-08-02T04:13:49.937Z,3.00
2022-08-02T04:16:21.707Z,2.58
2022-08-02T04:18:56.839Z,2.88
2022-08-02T04:21:27.067Z,2.70
2022-08-02T04:24:18.647Z,3.10
2022-08-02T04:26:49.070Z,2.80
2022-08-02T04:29:18.250Z,2.55
2022-08-02T04:31:45.243Z,2.80
2022-08-02T04:34:15.104Z,2.80
2022-08-02T04:36:42.354Z,3.00
2022-08-02T04:39:08.929Z,2.72
2022-08-02T04:41:43.893Z,2.90
2022-08-02T04:44:11.697Z,2.92
2022-08-02T04:46:38.682Z,2.83
2022-08-02T04:49:05.718Z,2.92
2022-08-02T04:51:40.685Z,2.38
2022-08-02T04:57:26.330Z,2.83
2022-08-02T04:59:54.635Z,2.80
2022-08-02T05:02:21.211Z,3.40
2022-08-02T05:04:47.680Z,3.30
2022-08-02T05:07:14.415Z,2.90
2022-08-02T05:09:40.912Z,2.60
2022-08-02T05:12:07.902Z,2.72
2022-08-02T05:14:34.485Z,2.92
2022-08-02T05:17:01.337Z,2.75
2022-08-02T05:19:27.841Z,2.60
2022-08-02T05:21:54.301Z,2.28
2022-08-02T05:24:20.779Z,2.28
2022-08-02T05:26:47.185Z,2.90
2022-08-02T05:29:13.650Z,2.47
2022-08-02T05:31:40.108Z,2.60
2022-08-02T05:34:09.996Z,2.50
2022-08-02T05:36:38.368Z,2.45
2022-08-02T05:41:38.988Z,2.22
2022-08-02T05:44:05.451Z,2.80
2022-08-02T05:46:31.946Z,2.55
2022-08-02T05:48:58.554Z,2.67
2022-08-02T05:51:36.017Z,2.42
2022-08-02T05:54:19.739Z,2.70
2022-08-02T05:56:59.405Z,2.65
2022-08-02T05:59:51.172Z,2.70
2022-08-02T06:02:30.759Z,2.28
2022-08-02T06:05:11.353Z,3.05
2022-08-02T06:10:06.257Z,2.70
2022-08-02T06:12:39.220Z,2.70
2022-08-02T06:15:06.138Z,3.30
2022-08-02T06:17:32.933Z,3.03
2022-08-02T06:20:00.920Z,2.80
2022-08-02T06:22:32.599Z,3.00
2022-08-02T06:25:03.291Z,2.80
2022-08-02T06:27:30.293Z,2.83
2022-08-02T06:29:57.775Z,3.20
2022-08-02T06:32:27.117Z,3.08
2022-08-02T06:34:53.543Z,3.10
2022-08-02T06:37:26.742Z,3.25
2022-08-02T06:40:14.885Z,3.00
2022-08-02T06:42:52.471Z,3.05
2022-08-02T06:45:19.085Z,3.28
2022-08-02T06:47:45.683Z,3.10
2022-08-02T06:50:13.684Z,3.10
2022-08-02T06:52:40.306Z,3.03
2022-08-02T06:55:09.390Z,3.30
2022-08-02T06:57:35.940Z,3.22
2022-08-02T07:00:09.088Z,2.75
2022-08-02T07:02:36.546Z,2.80
2022-08-02T07:05:04.267Z,3.33
2022-08-02T07:07:30.815Z,3.55
2022-08-02T07:10:01.226Z,3.13
2022-08-02T07:12:32.705Z,3.42
2022-08-02T07:15:00.843Z,2.90
2022-08-02T07:17:28.250Z,3.20
2022-08-02T07:19:57.056Z,3.58
2022-08-02T07:22:24.600Z,3.13
2022-08-02T07:24:51.208Z,3.28
2022-08-02T07:27:35.348Z,3.30
2022-08-02T07:30:02.109Z,3.40
2022-08-02T07:32:33.490Z,3.45
2022-08-02T07:35:06.990Z,3.53
2022-08-02T07:38:12.134Z,3.33
2022-08-02T07:40:39.306Z,3.50
2022-08-02T07:43:06.617Z,3.42
2022-08-02T07:45:36.002Z,3.42
2022-08-02T07:48:03.028Z,3.83
2022-08-02T07:50:54.618Z,3.30
2022-08-02T07:54:02.568Z,3.55
2022-08-02T07:56:33.004Z,3.30
2022-08-02T07:58:59.564Z,3.40
2022-08-02T08:01:28.281Z,3.58
2022-08-02T08:03:54.900Z,3.55
2022-08-02T08:06:28.744Z,3.13
2022-08-02T08:08:55.630Z,3.25
2022-08-02T08:11:22.058Z,2.90
2022-08-02T08:13:48.562Z,3.40
2022-08-02T08:16:14.984Z,3.53
2022-08-02T08:18:41.641Z,3.00
2022-08-02T08:21:08.127Z,3.20
2022-08-02T08:23:35.469Z,3.38
2022-08-02T08:26:02.458Z,3.20
2022-08-02T08:28:28.990Z,3.50
2022-08-02T08:30:55.573Z,3.50
2022-08-02T08:33:22.114Z,3.85
2022-08-02T08:35:48.923Z,3.30
2022-08-02T08:38:16.304Z,3.28
2022-08-02T08:40:44.701Z,4.13
2022-08-02T08:43:14.471Z,13.25
2022-08-02T08:45:43.457Z,3.72
2022-08-02T08:48:25.701Z,3.13
2022-08-02T08:51:11.158Z,3.17
2022-08-02T08:53:43.946Z,3.40
2022-08-02T08:56:16.002Z,3.50
2022-08-02T08:58:43.952Z,3.33
2022-08-02T09:01:12.535Z,3.20
2022-08-02T09:03:41.650Z,3.15
2022-08-02T09:06:08.088Z,3.40
2022-08-02T09:08:34.561Z,3.58
2022-08-02T09:11:01.599Z,3.80
2022-08-02T09:13:45.008Z,3.42
2022-08-02T09:16:14.551Z,9.60
2022-08-02T09:18:46.347Z,6.60
2022-08-02T09:21:16.069Z,6.68
2022-08-02T09:23:52.851Z,4.47
2022-08-02T09:26:23.436Z,4.22
2022-08-02T09:29:00.452Z,3.80
2022-08-02T09:31:33.187Z,4.05
2022-08-02T09:34:06.246Z,4.00
2022-08-02T09:36:44.863Z,4.60
2022-08-02T09:39:14.459Z,4.63
2022-08-02T09:41:43.433Z,4.00
2022-08-02T09:44:15.919Z,3.50
2022-08-02T09:46:45.324Z,3.67
2022-08-02T09:49:19.519Z,3.40
2022-08-02T09:51:49.147Z,3.80
2022-08-02T09:54:28.964Z,3.43
2022-08-02T09:56:57.976Z,3.33
2022-08-02T09:59:25.788Z,3.88
2022-08-02T10:02:01.948Z,3.72
2022-08-02T10:04:53.585Z,4.03
2022-08-02T10:07:22.567Z,3.90
2022-08-02T10:09:50.094Z,3.80
2022-08-02T10:12:17.341Z,3.75
2022-08-02T10:14:45.152Z,3.80
2022-08-02T10:17:12.051Z,3.72
2022-08-02T10:19:59.653Z,3.58
2022-08-02T10:22:29.771Z,3.30
2022-08-02T10:24:57.002Z,3.70
2022-08-02T10:27:25.722Z,3.60
2022-08-02T10:29:57.746Z,3.80
2022-08-02T10:32:29.930Z,3.47
2022-08-02T10:35:19.594Z,3.75
2022-08-02T10:38:01.240Z,3.33
2022-08-02T10:40:44.519Z,3.30
2022-08-02T10:43:11.893Z,3.70
2022-08-02T10:45:39.427Z,3.80
2022-08-02T10:48:14.557Z,4.00
2022-08-02T10:50:47.052Z,3.92
2022-08-02T10:53:30.174Z,4.20
2022-08-02T10:56:06.011Z,4.10
2022-08-02T10:58:35.915Z,4.27
2022-08-02T11:01:24.186Z,3.90
2022-08-02T11:03:50.678Z,3.80
2022-08-02T11:06:25.653Z,4.05
2022-08-02T11:09:31.820Z,3.80
2022-08-02T11:12:08.110Z,3.65
2022-08-02T11:14:37.135Z,3.85
2022-08-02T11:17:05.411Z,3.83
2022-08-02T11:19:34.044Z,3.78
2022-08-02T11:22:13.628Z,3.70
2022-08-02T11:24:42.538Z,3.97
2022-08-02T11:27:18.124Z,4.00
2022-08-02T11:29:51.108Z,3.60
2022-08-02T11:32:22.436Z,4.57
2022-08-02T11:34:57.519Z,3.80
2022-08-02T11:37:32.292Z,3.63
2022-08-02T11:39:58.945Z,3.72
2022-08-02T11:42:36.015Z,3.70
2022-08-02T11:45:03.916Z,3.90
2022-08-02T11:47:31.652Z,3.80
2022-08-02T11:50:09.122Z,3.80
2022-08-02T11:52:36.487Z,3.80
2022-08-02T11:55:03.241Z,4.32
2022-08-02T11:57:29.732Z,4.22
2022-08-02T12:00:18.050Z,4.65
2022-08-02T12:02:48.415Z,4.40
2022-08-02T12:05:20.520Z,4.07
2022-08-02T12:07:47.276Z,4.30
2022-08-02T12:10:22.499Z,4.40
2022-08-02T12:12:54.491Z,3.90
2022-08-02T12:15:36.706Z,4.30
2022-08-02T12:18:26.821Z,4.60
2022-08-02T12:20:53.492Z,4.60
2022-08-02T12:23:20.022Z,4.40
2022-08-02T12:25:46.479Z,4.40
2022-08-02T12:28:25.307Z,4.03
2022-08-02T12:31:00.443Z,4.20
2022-08-02T12:33:30.388Z,3.90
2022-08-02T12:38:23.438Z,4.25
2022-08-02T12:40:50.067Z,4.03
2022-08-02T12:43:19.472Z,4.00
2022-08-02T12:45:57.332Z,3.90
2022-08-02T12:48:39.146Z,3.65
2022-08-02T12:51:56.884Z,4.30
2022-08-02T12:54:32.488Z,4.70
2022-08-02T12:57:19.626Z,4.55
2022-08-02T12:59:53.213Z,4.40
2022-08-02T13:02:21.050Z,4.20
2022-08-02T13:04:49.869Z,4.60
2022-08-02T13:07:18.021Z,4.00
2022-08-02T13:09:45.974Z,4.20
2022-08-02T13:12:13.094Z,4.45
2022-08-02T13:14:42.413Z,4.25
2022-08-02T13:17:11.281Z,4.90
2022-08-02T13:19:38.601Z,4.57
2022-08-02T13:22:06.096Z,4.70
2022-08-02T13:24:40.174Z,4.32
2022-08-02T13:27:21.169Z,4.30
2022-08-02T13:29:48.972Z,4.43
2022-08-02T13:32:16.233Z,4.60
2022-08-02T13:34:43.116Z,4.45
2022-08-02T13:37:09.611Z,4.60
2022-08-02T13:39:36.070Z,4.70
2022-08-02T13:42:02.571Z,4.63
2022-08-02T13:44:29.047Z,4.78
2022-08-02T13:46:55.682Z,5.20
2022-08-02T13:49:49.861Z,4.65
2022-08-02T13:52:08.900Z,4.90
2022-08-02T13:54:35.456Z,5.28
2022-08-02T13:57:02.235Z,4.88
2022-08-02T13:59:55.925Z,4.95
2022-08-02T14:02:18.453Z,4.70
2022-08-02T14:04:45.281Z,5.10
2022-08-02T14:07:11.840Z,4.97
2022-08-02T14:09:38.508Z,4.70
2022-08-02T14:12:07.395Z,4.80
2022-08-02T14:14:33.845Z,5.03
2022-08-02T14:17:01.812Z,5.50
2022-08-02T14:19:28.602Z,5.03
2022-08-02T14:21:55.840Z,4.95
2022-08-02T14:24:37.920Z,4.80
2022-08-02T14:27:04.413Z,5.00
2022-08-02T14:29:30.813Z,4.40
2022-08-02T14:31:57.260Z,4.88
2022-08-02T14:34:23.660Z,4.90
2022-08-02T14:36:53.671Z,4.93
2022-08-02T14:39:20.586Z,4.55
2022-08-02T14:41:59.531Z,5.00
2022-08-02T14:44:28.172Z,4.80
2022-08-02T14:46:55.332Z,4.72
2022-08-02T14:49:24.529Z,5.05
2022-08-02T14:51:56.677Z,4.75
2022-08-02T14:54:30.938Z,4.55
2022-08-02T14:57:02.377Z,4.57
2022-08-02T14:59:29.976Z,4.57
2022-08-02T15:01:57.378Z,4.35
2022-08-02T15:04:24.228Z,4.53
2022-08-02T15:06:51.068Z,4.22
2022-08-02T15:09:17.625Z,4.53
2022-08-02T15:11:47.804Z,4.70
2022-08-02T15:14:20.338Z,4.68
2022-08-02T15:16:59.353Z,4.70
2022-08-02T15:19:56.751Z,4.90
2022-08-02T15:22:19.132Z,4.90
2022-08-02T15:24:46.721Z,4.68
2022-08-02T15:27:14.587Z,5.07
2022-08-02T15:29:42.839Z,4.60
2022-08-02T15:32:09.740Z,4.40
2022-08-02T15:34:36.491Z,4.45
2022-08-02T15:37:03.471Z,4.85
2022-08-02T15:39:30.130Z,4.63
2022-08-02T15:41:56.858Z,4.50
2022-08-02T15:44:23.405Z,5.10
2022-08-02T15:46:51.651Z,4.70
2022-08-02T15:49:18.127Z,4.65
2022-08-02T15:51:44.582Z,4.80
2022-08-02T15:54:10.979Z,4.65
2022-08-02T15:56:37.421Z,4.60
2022-08-02T15:59:03.902Z,4.57
2022-08-02T16:01:37.122Z,4.30
2022-08-02T16:04:08.510Z,4.20
2022-08-02T16:06:35.784Z,4.28
2022-08-02T16:09:02.761Z,3.90
2022-08-02T16:11:29.266Z,4.35
2022-08-02T16:13:56.654Z,4.30
2022-08-02T16:16:25.475Z,4.60
2022-08-02T16:18:52.056Z,4.47
2022-08-02T16:21:19.439Z,4.60
2022-08-02T16:23:58.706Z,4.57
2022-08-02T16:26:30.888Z,4.32
2022-08-02T16:28:58.135Z,4.30
2022-08-02T16:31:24.668Z,4.13
2022-08-02T16:33:56.177Z,4.15
2022-08-02T16:36:24.462Z,4.20
2022-08-02T16:38:51.339Z,4.35
2022-08-02T16:41:18.615Z,4.05
2022-08-02T16:43:45.052Z,4.13
2022-08-02T16:46:11.703Z,4.30
2022-08-02T16:48:38.182Z,4.28
2022-08-02T16:51:04.800Z,4.30
2022-08-02T16:54:00.386Z,4.20
2022-08-02T16:56:28.671Z,4.53
2022-08-02T16:58:55.320Z,4.50
2022-08-02T17:01:27.449Z,4.40
2022-08-02T17:03:56.614Z,4.13
2022-08-02T17:06:26.170Z,3.63
2022-08-02T17:08:54.337Z,4.05
2022-08-02T17:11:21.412Z,3.78
2022-08-02T17:13:50.531Z,4.00
2022-08-02T17:16:25.231Z,3.90
2022-08-02T17:18:54.024Z,3.90
2022-08-02T17:21:21.104Z,3.60
2022-08-02T17:24:05.234Z,3.47
2022-08-02T17:26:35.413Z,3.22
2022-08-02T17:29:15.887Z,3.25
2022-08-02T17:32:05.377Z,3.10
2022-08-02T17:34:31.694Z,3.50
2022-08-02T17:36:58.062Z,3.63
2022-08-02T17:39:24.522Z,3.67
2022-08-02T17:42:00.137Z,3.65
2022-08-02T17:44:36.894Z,3.50
2022-08-02T17:47:08.704Z,3.35
2022-08-02T17:49:44.403Z,3.60
2022-08-02T17:52:50.230Z,3.60
2022-08-02T17:55:03.289Z,3.70
2022-08-02T17:57:56.941Z,3.47
2022-08-02T18:00:17.394Z,3.80
2022-08-02T18:02:43.821Z,3.65
2022-08-02T18:05:19.613Z,3.60
2022-08-02T18:07:51.864Z,3.53
2022-08-02T18:10:22.135Z,3.58
2022-08-02T18:12:49.786Z,3.65
2022-08-02T18:15:16.233Z,3.72
2022-08-02T18:17:42.848Z,3.40
2022-08-02T18:20:11.154Z,3.67
2022-08-02T18:22:38.052Z,3.35
2022-08-02T18:25:09.512Z,3.78
2022-08-02T18:27:36.214Z,3.38
2022-08-02T18:30:07.878Z,3.83
2022-08-02T18:33:55.896Z,3.90
2022-08-02T18:35:21.439Z,3.88
2022-08-02T18:37:57.010Z,3.50
2022-08-02T18:40:25.011Z,3.83
2022-08-02T18:42:52.573Z,3.70
2022-08-02T18:45:19.961Z,3.80
2022-08-02T18:47:50.820Z,3.72
2022-08-02T18:50:18.117Z,3.60
2022-08-02T18:52:44.794Z,3.80
2022-08-02T18:55:17.579Z,3.67
2022-08-02T18:58:18.298Z,3.60
2022-08-02T19:00:51.677Z,3.90
2022-08-02T19:03:19.371Z,3.83
2022-08-02T19:05:53.213Z,3.72
2022-08-02T19:08:26.303Z,3.97
2022-08-02T19:10:55.164Z,3.75
2022-08-02T19:13:22.879Z,3.55
2022-08-02T19:15:49.383Z,4.15
2022-08-02T19:18:15.787Z,4.30
2022-08-02T19:20:48.207Z,3.40
2022-08-02T19:23:15.223Z,3.35
2022-08-02T19:25:50.315Z,8.82
2022-08-02T19:28:26.368Z,8.75
2022-08-02T19:30:54.165Z,3.90
2022-08-02T19:33:54.419Z,3.80
2022-08-02T19:36:07.163Z,3.42
2022-08-02T19:38:33.634Z,5.07
2022-08-02T19:41:01.570Z,3.45
2022-08-02T19:44:23.244Z,3.22
2022-08-02T19:46:16.060Z,3.20
2022-08-02T19:48:42.618Z,3.22
2022-08-02T19:51:10.553Z,3.03
2022-08-02T19:53:46.957Z,3.15
2022-08-02T19:56:20.501Z,3.15
2022-08-02T19:58:50.278Z,3.30
2022-08-02T20:01:21.927Z,3.42
2022-08-02T20:03:53.790Z,3.10
2022-08-02T20:06:26.461Z,3.25
2022-08-02T20:08:59.184Z,3.17
2022-08-02T20:11:27.281Z,3.47
2022-08-02T20:13:53.749Z,3.50
2022-08-02T20:16:27.276Z,3.40
2022-08-02T20:18:54.770Z,3.30
2022-08-02T20:21:35.920Z,3.30
2022-08-02T20:24:09.107Z,3.25
2022-08-02T20:26:35.816Z,3.60
2022-08-02T20:29:04.945Z,3.70
2022-08-02T20:31:31.395Z,3.63
2022-08-02T20:33:57.919Z,3.08
2022-08-02T20:36:28.244Z,3.08
2022-08-02T20:38:55.053Z,3.15
2022-08-02T20:41:22.951Z,3.13
2022-08-02T20:43:50.144Z,2.90
2022-08-02T20:46:16.642Z,3.25
2022-08-02T20:48:44.947Z,3.30
2022-08-02T20:51:12.570Z,3.28
2022-08-02T20:53:54.902Z,2.85
2022-08-02T20:56:23.237Z,3.05
2022-08-02T20:58:52.086Z,3.35
2022-08-02T21:01:21.132Z,3.17
2022-08-02T21:03:58.769Z,3.05
2022-08-02T21:06:28.054Z,3.40
2022-08-02T21:08:55.093Z,3.50
2022-08-02T21:11:25.225Z,3.38
2022-08-02T21:14:08.931Z,3.33
2022-08-02T21:16:36.668Z,2.90
2022-08-02T21:19:09.650Z,3.20
2022-08-02T21:21:36.922Z,3.22
2022-08-02T21:24:03.746Z,3.53
2022-08-02T21:26:31.074Z,4.28
2022-08-02T21:29:03.270Z,3.30
2022-08-02T21:31:32.046Z,3.22
2022-08-02T21:34:00.469Z,3.28
2022-08-02T21:36:33.063Z,2.95
2022-08-02T21:39:05.937Z,3.58
2022-08-02T21:41:39.866Z,3.15
2022-08-02T21:44:23.983Z,3.20
2022-08-02T21:46:54.903Z,2.70
2022-08-02T21:49:40.454Z,3.00
2022-08-02T21:52:10.626Z,2.88
2022-08-02T21:54:39.793Z,3.00
2022-08-02T21:57:07.639Z,3.00
2022-08-02T21:59:45.366Z,2.90
2022-08-02T22:02:30.742Z,2.50
2022-08-02T22:04:57.763Z,2.60
2022-08-02T22:07:24.654Z,2.88
2022-08-02T22:09:52.210Z,2.80
2022-08-02T22:12:19.408Z,2.47
2022-08-02T22:14:54.600Z,2.80
2022-08-02T22:17:52.221Z,2.80
2022-08-02T22:20:12.234Z,3.03
2022-08-02T22:22:39.343Z,2.90
2022-08-02T22:25:06.310Z,3.05
2022-08-02T22:28:34.712Z,2.60
2022-08-02T22:30:23.168Z,2.90
2022-08-02T22:33:15.199Z,2.85
2022-08-02T22:35:42.146Z,2.65
2022-08-02T22:38:15.062Z,2.70
2022-08-02T22:40:45.917Z,3.15
2022-08-02T22:43:22.553Z,2.90
2022-08-02T22:45:49.949Z,2.88
2022-08-02T22:48:16.653Z,2.80
2022-08-02T22:50:43.019Z,2.60
2022-08-02T22:53:09.523Z,2.78
2022-08-02T22:55:41.234Z,2.70
2022-08-02T22:58:08.899Z,2.80
2022-08-02T23:00:35.377Z,3.03
2022-08-02T23:03:01.821Z,2.95
2022-08-02T23:05:29.916Z,2.72
2022-08-02T23:07:56.566Z,2.80
2022-08-02T23:10:23.131Z,2.90
2022-08-02T23:12:49.895Z,3.10
2022-08-02T23:15:16.401Z,3.28
2022-08-02T23:18:01.342Z,2.95
2022-08-02T23:20:27.797Z,3.00
2022-08-02T23:22:55.661Z,2.80
2022-08-02T23:25:22.425Z,2.95
2022-08-02T23:27:51.144Z,2.78
2022-08-02T23:30:18.827Z,2.63
2022-08-02T23:32:46.823Z,2.78
2022-08-02T23:35:17.133Z,3.10
2022-08-02T23:37:57.991Z,2.88
2022-08-02T23:40:39.607Z,2.65
2022-08-02T23:45:41.223Z,2.88
2022-08-02T23:48:07.650Z,2.90
2022-08-02T23:50:34.102Z,3.00
2022-08-02T23:53:00.497Z,3.10
2022-08-02T23:55:26.894Z,3.10
2022-08-02T23:57:53.292Z,3.55
